sensor_id;sensor_type;location;lat;lon;timestamp;temperature;humidity
75022;SHT31;63583;49.976;20.182;2024-02-04T00:02:25;8.32;84.24
75022;SHT31;63583;49.976;20.182;2024-02-04T00:04:52;8.34;84.24
75022;SHT31;63583;49.976;20.182;2024-02-04T00:07:18;8.36;84.06
75022;SHT31;63583;49.976;20.182;2024-02-04T00:09:43;8.26;84.73
75022;SHT31;63583;49.976;20.182;2024-02-04T00:12:11;8.19;85.48
75022;SHT31;63583;49.976;20.182;2024-02-04T00:14:36;8.22;85.51
75022;SHT31;63583;49.976;20.182;2024-02-04T00:17:03;8.10;86.06
75022;SHT31;63583;49.976;20.182;2024-02-04T00:19:29;8.12;86.36
75022;SHT31;63583;49.976;20.182;2024-02-04T00:21:55;8.07;86.69
75022;SHT31;63583;49.976;20.182;2024-02-04T00:24:21;8.01;87.85
75022;SHT31;63583;49.976;20.182;2024-02-04T00:26:47;7.85;88.33
75022;SHT31;63583;49.976;20.182;2024-02-04T00:29:13;7.86;88.75
75022;SHT31;63583;49.976;20.182;2024-02-04T00:31:39;7.74;89.25
75022;SHT31;63583;49.976;20.182;2024-02-04T00:34:05;7.79;89.00
75022;SHT31;63583;49.976;20.182;2024-02-04T00:36:31;7.82;88.52
75022;SHT31;63583;49.976;20.182;2024-02-04T00:38:57;7.88;88.56
75022;SHT31;63583;49.976;20.182;2024-02-04T00:41:23;7.81;88.76
75022;SHT31;63583;49.976;20.182;2024-02-04T00:43:49;7.82;88.13
75022;SHT31;63583;49.976;20.182;2024-02-04T00:46:14;7.86;87.69
75022;SHT31;63583;49.976;20.182;2024-02-04T00:48:40;7.92;87.47
75022;SHT31;63583;49.976;20.182;2024-02-04T00:51:06;7.98;87.13
75022;SHT31;63583;49.976;20.182;2024-02-04T00:53:32;8.02;86.43
75022;SHT31;63583;49.976;20.182;2024-02-04T00:56:04;8.02;86.36
75022;SHT31;63583;49.976;20.182;2024-02-04T00:58:30;8.06;85.99
75022;SHT31;63583;49.976;20.182;2024-02-04T01:00:56;8.13;85.62
75022;SHT31;63583;49.976;20.182;2024-02-04T01:03:22;8.12;86.00
75022;SHT31;63583;49.976;20.182;2024-02-04T01:05:48;8.10;86.60
75022;SHT31;63583;49.976;20.182;2024-02-04T01:08:13;7.94;87.89
75022;SHT31;63583;49.976;20.182;2024-02-04T01:10:39;7.95;87.91
75022;SHT31;63583;49.976;20.182;2024-02-04T01:13:05;7.81;88.85
75022;SHT31;63583;49.976;20.182;2024-02-04T01:15:31;7.85;88.95
75022;SHT31;63583;49.976;20.182;2024-02-04T01:17:57;7.78;88.87
75022;SHT31;63583;49.976;20.182;2024-02-04T01:20:23;7.75;89.33
75022;SHT31;63583;49.976;20.182;2024-02-04T01:22:48;7.75;89.72
75022;SHT31;63583;49.976;20.182;2024-02-04T01:25:14;7.77;90.24
75022;SHT31;63583;49.976;20.182;2024-02-04T01:27:40;7.64;90.97
75022;SHT31;63583;49.976;20.182;2024-02-04T01:30:06;7.44;92.25
75022;SHT31;63583;49.976;20.182;2024-02-04T01:32:32;7.33;93.00
75022;SHT31;63583;49.976;20.182;2024-02-04T01:34:58;7.37;92.95
75022;SHT31;63583;49.976;20.182;2024-02-04T01:37:23;7.24;93.56
75022;SHT31;63583;49.976;20.182;2024-02-04T01:39:49;7.26;93.29
75022;SHT31;63583;49.976;20.182;2024-02-04T01:42:15;7.29;93.38
75022;SHT31;63583;49.976;20.182;2024-02-04T01:44:41;7.34;93.02
75022;SHT31;63583;49.976;20.182;2024-02-04T01:47:07;7.24;93.47
75022;SHT31;63583;49.976;20.182;2024-02-04T01:49:33;7.26;93.46
75022;SHT31;63583;49.976;20.182;2024-02-04T01:52:00;7.31;93.04
75022;SHT31;63583;49.976;20.182;2024-02-04T01:54:26;7.42;92.92
75022;SHT31;63583;49.976;20.182;2024-02-04T01:56:53;7.37;92.67
75022;SHT31;63583;49.976;20.182;2024-02-04T01:59:22;7.27;93.13
75022;SHT31;63583;49.976;20.182;2024-02-04T02:01:53;7.30;93.38
75022;SHT31;63583;49.976;20.182;2024-02-04T02:04:19;7.26;93.56
75022;SHT31;63583;49.976;20.182;2024-02-04T02:06:45;7.23;93.98
75022;SHT31;63583;49.976;20.182;2024-02-04T02:09:12;7.26;94.23
75022;SHT31;63583;49.976;20.182;2024-02-04T02:11:43;7.15;94.50
75022;SHT31;63583;49.976;20.182;2024-02-04T02:14:13;7.06;94.80
75022;SHT31;63583;49.976;20.182;2024-02-04T02:16:40;7.09;95.02
75022;SHT31;63583;49.976;20.182;2024-02-04T02:24:42;7.02;95.58
75022;SHT31;63583;49.976;20.182;2024-02-04T02:27:08;6.99;95.61
75022;SHT31;63583;49.976;20.182;2024-02-04T02:29:34;6.95;95.77
75022;SHT31;63583;49.976;20.182;2024-02-04T02:32:00;6.95;95.75
75022;SHT31;63583;49.976;20.182;2024-02-04T02:34:41;6.95;95.79
75022;SHT31;63583;49.976;20.182;2024-02-04T02:37:26;7.00;95.93
75022;SHT31;63583;49.976;20.182;2024-02-04T02:39:59;7.00;95.21
75022;SHT31;63583;49.976;20.182;2024-02-04T02:42:30;7.08;94.97
75022;SHT31;63583;49.976;20.182;2024-02-04T02:44:56;6.93;95.13
75022;SHT31;63583;49.976;20.182;2024-02-04T02:47:26;7.02;95.17
75022;SHT31;63583;49.976;20.182;2024-02-04T02:49:54;7.03;95.17
75022;SHT31;63583;49.976;20.182;2024-02-04T02:52:36;7.06;95.18
75022;SHT31;63583;49.976;20.182;2024-02-04T02:55:02;7.03;95.41
75022;SHT31;63583;49.976;20.182;2024-02-04T02:57:28;7.00;95.41
75022;SHT31;63583;49.976;20.182;2024-02-04T02:59:53;7.02;95.57
75022;SHT31;63583;49.976;20.182;2024-02-04T03:02:19;7.10;94.97
75022;SHT31;63583;49.976;20.182;2024-02-04T03:04:45;7.09;95.01
75022;SHT31;63583;49.976;20.182;2024-02-04T03:07:11;7.03;94.98
75022;SHT31;63583;49.976;20.182;2024-02-04T03:09:37;7.13;94.33
75022;SHT31;63583;49.976;20.182;2024-02-04T03:12:02;7.17;94.56
75022;SHT31;63583;49.976;20.182;2024-02-04T03:14:28;7.12;94.88
75022;SHT31;63583;49.976;20.182;2024-02-04T03:16:54;7.17;94.56
75022;SHT31;63583;49.976;20.182;2024-02-04T03:19:20;7.15;94.03
75022;SHT31;63583;49.976;20.182;2024-02-04T03:21:47;7.09;94.02
75022;SHT31;63583;49.976;20.182;2024-02-04T03:24:13;7.08;92.63
75022;SHT31;63583;49.976;20.182;2024-02-04T03:26:39;7.03;92.19
75022;SHT31;63583;49.976;20.182;2024-02-04T03:29:04;7.05;91.63
75022;SHT31;63583;49.976;20.182;2024-02-04T03:31:30;7.00;90.87
75022;SHT31;63583;49.976;20.182;2024-02-04T03:33:56;7.08;90.31
75022;SHT31;63583;49.976;20.182;2024-02-04T03:36:23;7.05;90.37
75022;SHT31;63583;49.976;20.182;2024-02-04T03:38:52;7.00;90.46
75022;SHT31;63583;49.976;20.182;2024-02-04T03:41:18;6.93;90.31
75022;SHT31;63583;49.976;20.182;2024-02-04T03:43:45;6.96;90.34
75022;SHT31;63583;49.976;20.182;2024-02-04T03:46:13;6.87;90.46
75022;SHT31;63583;49.976;20.182;2024-02-04T03:48:39;6.88;90.01
75022;SHT31;63583;49.976;20.182;2024-02-04T03:51:05;6.92;89.50
75022;SHT31;63583;49.976;20.182;2024-02-04T03:53:31;6.89;89.04
75022;SHT31;63583;49.976;20.182;2024-02-04T03:55:57;6.89;88.91
75022;SHT31;63583;49.976;20.182;2024-02-04T03:58:23;6.84;89.15
75022;SHT31;63583;49.976;20.182;2024-02-04T04:00:55;6.85;89.05
75022;SHT31;63583;49.976;20.182;2024-02-04T04:03:22;6.87;89.14
75022;SHT31;63583;49.976;20.182;2024-02-04T04:05:49;6.87;88.85
75022;SHT31;63583;49.976;20.182;2024-02-04T04:08:15;6.75;89.00
75022;SHT31;63583;49.976;20.182;2024-02-04T04:10:41;6.82;88.80
75022;SHT31;63583;49.976;20.182;2024-02-04T04:13:06;6.77;88.89
75022;SHT31;63583;49.976;20.182;2024-02-04T04:15:33;6.74;88.74
75022;SHT31;63583;49.976;20.182;2024-02-04T04:17:58;6.81;88.47
75022;SHT31;63583;49.976;20.182;2024-02-04T04:20:24;6.79;88.42
75022;SHT31;63583;49.976;20.182;2024-02-04T04:22:50;6.70;88.61
75022;SHT31;63583;49.976;20.182;2024-02-04T04:25:16;6.77;88.17
75022;SHT31;63583;49.976;20.182;2024-02-04T04:27:43;6.81;88.17
75022;SHT31;63583;49.976;20.182;2024-02-04T04:30:10;6.71;88.15
75022;SHT31;63583;49.976;20.182;2024-02-04T04:32:36;6.68;88.33
75022;SHT31;63583;49.976;20.182;2024-02-04T04:35:02;6.65;88.11
75022;SHT31;63583;49.976;20.182;2024-02-04T04:37:28;6.63;88.39
75022;SHT31;63583;49.976;20.182;2024-02-04T04:39:54;6.63;88.02
75022;SHT31;63583;49.976;20.182;2024-02-04T04:42:19;6.63;87.69
75022;SHT31;63583;49.976;20.182;2024-02-04T04:44:45;6.60;87.75
75022;SHT31;63583;49.976;20.182;2024-02-04T04:47:12;6.61;87.79
75022;SHT31;63583;49.976;20.182;2024-02-04T04:49:38;6.71;87.92
75022;SHT31;63583;49.976;20.182;2024-02-04T04:52:04;6.67;88.31
75022;SHT31;63583;49.976;20.182;2024-02-04T04:54:30;6.70;88.33
75022;SHT31;63583;49.976;20.182;2024-02-04T04:56:56;6.70;88.72
75022;SHT31;63583;49.976;20.182;2024-02-04T04:59:22;6.72;88.48
75022;SHT31;63583;49.976;20.182;2024-02-04T05:01:48;6.74;88.69
75022;SHT31;63583;49.976;20.182;2024-02-04T05:04:16;6.72;88.83
75022;SHT31;63583;49.976;20.182;2024-02-04T05:06:42;6.77;88.57
75022;SHT31;63583;49.976;20.182;2024-02-04T05:09:08;6.68;88.73
75022;SHT31;63583;49.976;20.182;2024-02-04T05:11:34;6.79;88.31
75022;SHT31;63583;49.976;20.182;2024-02-04T05:14:00;6.70;88.73
75022;SHT31;63583;49.976;20.182;2024-02-04T05:16:26;6.84;88.06
75022;SHT31;63583;49.976;20.182;2024-02-04T05:18:52;6.70;88.43
75022;SHT31;63583;49.976;20.182;2024-02-04T05:21:17;6.81;88.11
75022;SHT31;63583;49.976;20.182;2024-02-04T05:23:43;6.82;87.72
75022;SHT31;63583;49.976;20.182;2024-02-04T05:26:09;6.85;87.55
75022;SHT31;63583;49.976;20.182;2024-02-04T05:28:35;6.82;88.16
75022;SHT31;63583;49.976;20.182;2024-02-04T05:31:01;6.89;88.14
75022;SHT31;63583;49.976;20.182;2024-02-04T05:33:27;6.88;88.43
75022;SHT31;63583;49.976;20.182;2024-02-04T05:35:52;6.81;89.01
75022;SHT31;63583;49.976;20.182;2024-02-04T05:38:18;6.82;89.25
75022;SHT31;63583;49.976;20.182;2024-02-04T05:40:44;6.74;90.21
75022;SHT31;63583;49.976;20.182;2024-02-04T05:43:10;6.65;90.83
75022;SHT31;63583;49.976;20.182;2024-02-04T05:45:39;6.61;90.99
75022;SHT31;63583;49.976;20.182;2024-02-04T05:48:09;6.50;91.64
75022;SHT31;63583;49.976;20.182;2024-02-04T05:50:36;6.44;92.45
75022;SHT31;63583;49.976;20.182;2024-02-04T05:53:02;6.44;92.83
75022;SHT31;63583;49.976;20.182;2024-02-04T05:55:29;6.37;92.59
75022;SHT31;63583;49.976;20.182;2024-02-04T05:57:55;6.30;93.24
75022;SHT31;63583;49.976;20.182;2024-02-04T06:00:21;6.24;92.85
75022;SHT31;63583;49.976;20.182;2024-02-04T06:02:46;6.14;92.92
75022;SHT31;63583;49.976;20.182;2024-02-04T06:05:13;6.20;93.79
75022;SHT31;63583;49.976;20.182;2024-02-04T06:07:39;6.06;94.55
75022;SHT31;63583;49.976;20.182;2024-02-04T06:10:08;6.02;95.01
75022;SHT31;63583;49.976;20.182;2024-02-04T06:12:35;6.02;95.25
75022;SHT31;63583;49.976;20.182;2024-02-04T06:15:00;5.99;95.75
75022;SHT31;63583;49.976;20.182;2024-02-04T06:17:26;5.89;96.11
75022;SHT31;63583;49.976;20.182;2024-02-04T06:19:52;5.89;96.42
75022;SHT31;63583;49.976;20.182;2024-02-04T06:22:18;5.82;95.90
75022;SHT31;63583;49.976;20.182;2024-02-04T06:24:44;5.79;95.83
75022;SHT31;63583;49.976;20.182;2024-02-04T06:27:11;5.81;95.77
75022;SHT31;63583;49.976;20.182;2024-02-04T06:29:37;5.78;95.94
75022;SHT31;63583;49.976;20.182;2024-02-04T06:32:05;5.82;96.21
75022;SHT31;63583;49.976;20.182;2024-02-04T06:34:31;5.74;96.62
75022;SHT31;63583;49.976;20.182;2024-02-04T06:36:57;5.78;96.87
75022;SHT31;63583;49.976;20.182;2024-02-04T06:39:23;5.81;96.71
75022;SHT31;63583;49.976;20.182;2024-02-04T06:41:49;5.89;96.36
75022;SHT31;63583;49.976;20.182;2024-02-04T06:44:15;5.85;96.34
75022;SHT31;63583;49.976;20.182;2024-02-04T06:46:41;5.93;96.63
75022;SHT31;63583;49.976;20.182;2024-02-04T06:49:06;5.96;96.19
75022;SHT31;63583;49.976;20.182;2024-02-04T06:51:33;6.13;95.59
75022;SHT31;63583;49.976;20.182;2024-02-04T06:53:58;6.14;95.68
75022;SHT31;63583;49.976;20.182;2024-02-04T06:56:26;6.22;95.23
75022;SHT31;63583;49.976;20.182;2024-02-04T06:58:52;6.27;94.72
75022;SHT31;63583;49.976;20.182;2024-02-04T07:01:18;6.33;94.65
75022;SHT31;63583;49.976;20.182;2024-02-04T07:03:43;6.36;94.53
75022;SHT31;63583;49.976;20.182;2024-02-04T07:06:10;6.34;94.41
75022;SHT31;63583;49.976;20.182;2024-02-04T07:08:36;6.41;94.34
75022;SHT31;63583;49.976;20.182;2024-02-04T07:11:02;6.42;94.12
75022;SHT31;63583;49.976;20.182;2024-02-04T07:13:28;6.38;94.01
75022;SHT31;63583;49.976;20.182;2024-02-04T07:15:54;6.42;93.68
75022;SHT31;63583;49.976;20.182;2024-02-04T07:18:20;6.48;92.00
75022;SHT31;63583;49.976;20.182;2024-02-04T07:20:48;6.51;91.78
75022;SHT31;63583;49.976;20.182;2024-02-04T07:23:14;6.45;91.79
75022;SHT31;63583;49.976;20.182;2024-02-04T07:25:40;6.45;91.62
75022;SHT31;63583;49.976;20.182;2024-02-04T07:28:06;6.47;90.10
75022;SHT31;63583;49.976;20.182;2024-02-04T07:30:31;6.47;90.43
75022;SHT31;63583;49.976;20.182;2024-02-04T07:32:57;6.48;90.05
75022;SHT31;63583;49.976;20.182;2024-02-04T07:35:24;6.51;89.52
75022;SHT31;63583;49.976;20.182;2024-02-04T07:37:49;6.51;88.44
75022;SHT31;63583;49.976;20.182;2024-02-04T07:40:15;6.48;87.95
75022;SHT31;63583;49.976;20.182;2024-02-04T07:42:41;6.52;87.93
75022;SHT31;63583;49.976;20.182;2024-02-04T07:45:08;6.60;87.34
75022;SHT31;63583;49.976;20.182;2024-02-04T07:47:35;6.63;87.35
75022;SHT31;63583;49.976;20.182;2024-02-04T07:50:02;6.60;87.77
75022;SHT31;63583;49.976;20.182;2024-02-04T07:52:28;6.60;86.77
75022;SHT31;63583;49.976;20.182;2024-02-04T07:54:54;6.65;86.76
75022;SHT31;63583;49.976;20.182;2024-02-04T07:57:20;6.67;86.37
75022;SHT31;63583;49.976;20.182;2024-02-04T07:59:46;6.68;85.93
75022;SHT31;63583;49.976;20.182;2024-02-04T08:02:12;6.70;86.00
75022;SHT31;63583;49.976;20.182;2024-02-04T08:04:41;6.70;85.33
75022;SHT31;63583;49.976;20.182;2024-02-04T08:07:07;6.74;84.57
75022;SHT31;63583;49.976;20.182;2024-02-04T08:09:33;6.77;83.88
75022;SHT31;63583;49.976;20.182;2024-02-04T08:11:59;6.78;82.41
75022;SHT31;63583;49.976;20.182;2024-02-04T08:14:28;6.87;81.37
75022;SHT31;63583;49.976;20.182;2024-02-04T08:16:53;6.85;80.89
75022;SHT31;63583;49.976;20.182;2024-02-04T08:19:19;6.87;79.95
75022;SHT31;63583;49.976;20.182;2024-02-04T08:21:45;6.92;80.23
75022;SHT31;63583;49.976;20.182;2024-02-04T08:24:14;6.93;79.86
75022;SHT31;63583;49.976;20.182;2024-02-04T08:26:40;6.87;79.30
75022;SHT31;63583;49.976;20.182;2024-02-04T08:29:06;6.84;78.64
75022;SHT31;63583;49.976;20.182;2024-02-04T08:31:32;6.82;79.39
75022;SHT31;63583;49.976;20.182;2024-02-04T08:33:59;6.87;76.41
75022;SHT31;63583;49.976;20.182;2024-02-04T08:36:25;6.79;77.36
75022;SHT31;63583;49.976;20.182;2024-02-04T08:38:51;6.88;77.11
75022;SHT31;63583;49.976;20.182;2024-02-04T08:41:17;6.87;77.90
75022;SHT31;63583;49.976;20.182;2024-02-04T08:43:43;6.98;77.85
75022;SHT31;63583;49.976;20.182;2024-02-04T08:46:09;6.95;78.17
75022;SHT31;63583;49.976;20.182;2024-02-04T08:48:35;6.93;77.77
75022;SHT31;63583;49.976;20.182;2024-02-04T08:51:02;6.95;77.31
75022;SHT31;63583;49.976;20.182;2024-02-04T08:53:29;7.03;77.72
75022;SHT31;63583;49.976;20.182;2024-02-04T08:55:56;7.00;77.11
75022;SHT31;63583;49.976;20.182;2024-02-04T08:58:22;7.15;77.07
75022;SHT31;63583;49.976;20.182;2024-02-04T09:00:48;7.13;76.97
75022;SHT31;63583;49.976;20.182;2024-02-04T09:03:14;7.17;77.20
75022;SHT31;63583;49.976;20.182;2024-02-04T09:05:40;7.13;77.66
75022;SHT31;63583;49.976;20.182;2024-02-04T09:08:07;7.24;77.58
75022;SHT31;63583;49.976;20.182;2024-02-04T09:10:32;7.16;77.76
75022;SHT31;63583;49.976;20.182;2024-02-04T09:12:58;7.22;78.36
75022;SHT31;63583;49.976;20.182;2024-02-04T09:15:24;7.15;79.49
75022;SHT31;63583;49.976;20.182;2024-02-04T09:17:50;7.12;79.85
75022;SHT31;63583;49.976;20.182;2024-02-04T09:20:16;7.12;80.30
75022;SHT31;63583;49.976;20.182;2024-02-04T09:22:43;7.10;81.36
75022;SHT31;63583;49.976;20.182;2024-02-04T09:25:08;7.02;81.55
75022;SHT31;63583;49.976;20.182;2024-02-04T09:27:35;7.03;82.14
75022;SHT31;63583;49.976;20.182;2024-02-04T09:30:02;7.17;81.66
75022;SHT31;63583;49.976;20.182;2024-02-04T09:32:28;7.10;81.80
75022;SHT31;63583;49.976;20.182;2024-02-04T09:34:54;7.06;81.75
75022;SHT31;63583;49.976;20.182;2024-02-04T09:37:20;7.13;81.30
75022;SHT31;63583;49.976;20.182;2024-02-04T09:39:45;7.03;82.25
75022;SHT31;63583;49.976;20.182;2024-02-04T09:42:18;7.05;82.19
75022;SHT31;63583;49.976;20.182;2024-02-04T09:44:45;7.12;81.66
75022;SHT31;63583;49.976;20.182;2024-02-04T09:47:13;7.17;80.70
75022;SHT31;63583;49.976;20.182;2024-02-04T09:49:39;7.03;81.34
75022;SHT31;63583;49.976;20.182;2024-02-04T09:52:07;7.23;81.08
75022;SHT31;63583;49.976;20.182;2024-02-04T09:54:58;7.19;81.42
75022;SHT31;63583;49.976;20.182;2024-02-04T09:57:25;7.31;80.96
75022;SHT31;63583;49.976;20.182;2024-02-04T09:59:50;7.23;81.05
75022;SHT31;63583;49.976;20.182;2024-02-04T10:02:17;7.29;81.70
75022;SHT31;63583;49.976;20.182;2024-02-04T10:04:43;7.29;81.00
75022;SHT31;63583;49.976;20.182;2024-02-04T10:07:09;7.27;82.43
75022;SHT31;63583;49.976;20.182;2024-02-04T10:09:34;7.30;82.58
75022;SHT31;63583;49.976;20.182;2024-02-04T10:12:02;7.31;82.76
75022;SHT31;63583;49.976;20.182;2024-02-04T10:14:27;7.26;82.46
75022;SHT31;63583;49.976;20.182;2024-02-04T10:16:53;7.37;82.78
75022;SHT31;63583;49.976;20.182;2024-02-04T10:19:19;7.37;82.65
75022;SHT31;63583;49.976;20.182;2024-02-04T10:21:45;7.42;83.08
75022;SHT31;63583;49.976;20.182;2024-02-04T10:24:10;7.50;82.61
75022;SHT31;63583;49.976;20.182;2024-02-04T10:26:36;7.48;82.24
75022;SHT31;63583;49.976;20.182;2024-02-04T10:29:03;7.68;82.02
75022;SHT31;63583;49.976;20.182;2024-02-04T10:31:29;7.70;81.80
75022;SHT31;63583;49.976;20.182;2024-02-04T10:33:55;7.77;80.57
75022;SHT31;63583;49.976;20.182;2024-02-04T10:36:22;7.85;80.19
75022;SHT31;63583;49.976;20.182;2024-02-04T10:38:48;7.85;80.03
75022;SHT31;63583;49.976;20.182;2024-02-04T10:41:15;7.91;80.25
75022;SHT31;63583;49.976;20.182;2024-02-04T10:43:42;7.96;79.33
75022;SHT31;63583;49.976;20.182;2024-02-04T10:48:37;8.02;78.41
75022;SHT31;63583;49.976;20.182;2024-02-04T10:51:13;8.15;78.84
75022;SHT31;63583;49.976;20.182;2024-02-04T10:53:44;8.21;78.87
75022;SHT31;63583;49.976;20.182;2024-02-04T10:56:25;8.25;78.41
75022;SHT31;63583;49.976;20.182;2024-02-04T10:58:55;8.28;77.62
75022;SHT31;63583;49.976;20.182;2024-02-04T11:01:22;8.28;77.90
75022;SHT31;63583;49.976;20.182;2024-02-04T11:03:50;8.44;77.07
75022;SHT31;63583;49.976;20.182;2024-02-04T11:06:18;8.34;76.97
75022;SHT31;63583;49.976;20.182;2024-02-04T11:08:46;8.23;77.16
75022;SHT31;63583;49.976;20.182;2024-02-04T11:11:12;8.25;77.31
75022;SHT31;63583;49.976;20.182;2024-02-04T11:13:41;8.32;75.77
75022;SHT31;63583;49.976;20.182;2024-02-04T11:16:21;8.32;75.67
75022;SHT31;63583;49.976;20.182;2024-02-04T11:21:50;8.39;75.48
75022;SHT31;63583;49.976;20.182;2024-02-04T11:26:55;8.57;75.75
75022;SHT31;63583;49.976;20.182;2024-02-04T11:29:21;8.60;75.78
75022;SHT31;63583;49.976;20.182;2024-02-04T11:31:47;8.57;76.14
75022;SHT31;63583;49.976;20.182;2024-02-04T11:34:13;8.65;76.49
75022;SHT31;63583;49.976;20.182;2024-02-04T11:36:40;8.63;75.03
75022;SHT31;63583;49.976;20.182;2024-02-04T11:39:17;8.61;74.80
75022;SHT31;63583;49.976;20.182;2024-02-04T11:41:47;8.63;75.33
75022;SHT31;63583;49.976;20.182;2024-02-04T11:44:24;8.44;75.29
75022;SHT31;63583;49.976;20.182;2024-02-04T11:46:50;8.36;75.11
75022;SHT31;63583;49.976;20.182;2024-02-04T11:49:17;8.50;74.94
75022;SHT31;63583;49.976;20.182;2024-02-04T11:51:47;8.46;75.58
75022;SHT31;63583;49.976;20.182;2024-02-04T11:54:16;8.49;75.38
75022;SHT31;63583;49.976;20.182;2024-02-04T11:56:50;8.44;75.29
75022;SHT31;63583;49.976;20.182;2024-02-04T11:59:24;8.54;75.83
75022;SHT31;63583;49.976;20.182;2024-02-04T12:01:56;8.67;76.11
75022;SHT31;63583;49.976;20.182;2024-02-04T12:04:23;8.87;76.34
75022;SHT31;63583;49.976;20.182;2024-02-04T12:06:50;8.89;75.21
75022;SHT31;63583;49.976;20.182;2024-02-04T12:09:19;8.74;76.43
75022;SHT31;63583;49.976;20.182;2024-02-04T12:11:45;8.77;76.49
75022;SHT31;63583;49.976;20.182;2024-02-04T12:14:13;8.74;77.09
75022;SHT31;63583;49.976;20.182;2024-02-04T12:16:40;8.70;77.04
75022;SHT31;63583;49.976;20.182;2024-02-04T12:19:06;8.72;77.35
75022;SHT31;63583;49.976;20.182;2024-02-04T12:21:33;8.67;77.58
75022;SHT31;63583;49.976;20.182;2024-02-04T12:23:59;8.72;78.17
75022;SHT31;63583;49.976;20.182;2024-02-04T12:26:25;8.64;77.79
75022;SHT31;63583;49.976;20.182;2024-02-04T12:28:52;8.61;78.28
75022;SHT31;63583;49.976;20.182;2024-02-04T12:31:19;8.59;78.01
75022;SHT31;63583;49.976;20.182;2024-02-04T12:34:00;8.44;79.90
75022;SHT31;63583;49.976;20.182;2024-02-04T12:36:28;8.32;80.83
75022;SHT31;63583;49.976;20.182;2024-02-04T12:38:58;8.06;82.41
75022;SHT31;63583;49.976;20.182;2024-02-04T12:41:26;8.19;82.37
75022;SHT31;63583;49.976;20.182;2024-02-04T12:43:54;8.23;83.29
75022;SHT31;63583;49.976;20.182;2024-02-04T12:46:22;8.10;84.67
75022;SHT31;63583;49.976;20.182;2024-02-04T12:48:54;8.17;85.21
75022;SHT31;63583;49.976;20.182;2024-02-04T12:51:27;7.99;86.40
75022;SHT31;63583;49.976;20.182;2024-02-04T12:54:07;8.07;86.73
75022;SHT31;63583;49.976;20.182;2024-02-04T12:59:08;7.99;86.99
75022;SHT31;63583;49.976;20.182;2024-02-04T13:01:38;7.92;87.06
75022;SHT31;63583;49.976;20.182;2024-02-04T13:04:04;7.73;88.20
75022;SHT31;63583;49.976;20.182;2024-02-04T13:06:31;7.71;89.29
75022;SHT31;63583;49.976;20.182;2024-02-04T13:08:57;7.77;89.15
75022;SHT31;63583;49.976;20.182;2024-02-04T13:11:25;7.74;89.57
75022;SHT31;63583;49.976;20.182;2024-02-04T13:13:51;7.81;89.76
75022;SHT31;63583;49.976;20.182;2024-02-04T13:16:17;7.78;90.37
75022;SHT31;63583;49.976;20.182;2024-02-04T13:18:51;7.61;91.34
75022;SHT31;63583;49.976;20.182;2024-02-04T13:21:17;7.64;91.44
75022;SHT31;63583;49.976;20.182;2024-02-04T13:23:45;7.53;92.58
75022;SHT31;63583;49.976;20.182;2024-02-04T13:26:11;7.57;92.53
75022;SHT31;63583;49.976;20.182;2024-02-04T13:28:38;7.53;92.97
75022;SHT31;63583;49.976;20.182;2024-02-04T13:31:04;7.43;93.66
75022;SHT31;63583;49.976;20.182;2024-02-04T13:33:30;7.36;93.90
75022;SHT31;63583;49.976;20.182;2024-02-04T13:35:57;7.40;93.98
75022;SHT31;63583;49.976;20.182;2024-02-04T13:38:22;7.33;94.07
75022;SHT31;63583;49.976;20.182;2024-02-04T13:40:48;7.42;94.02
75022;SHT31;63583;49.976;20.182;2024-02-04T13:43:14;7.38;94.06
75022;SHT31;63583;49.976;20.182;2024-02-04T13:45:40;7.37;94.46
75022;SHT31;63583;49.976;20.182;2024-02-04T13:48:06;7.42;94.60
75022;SHT31;63583;49.976;20.182;2024-02-04T13:50:33;7.31;94.74
75022;SHT31;63583;49.976;20.182;2024-02-04T13:52:58;7.38;94.49
75022;SHT31;63583;49.976;20.182;2024-02-04T13:55:24;7.36;95.04
75022;SHT31;63583;49.976;20.182;2024-02-04T13:57:50;7.42;95.21
75022;SHT31;63583;49.976;20.182;2024-02-04T14:00:16;7.48;94.73
75022;SHT31;63583;49.976;20.182;2024-02-04T14:02:43;7.47;95.00
75022;SHT31;63583;49.976;20.182;2024-02-04T14:05:09;7.46;94.86
75022;SHT31;63583;49.976;20.182;2024-02-04T14:07:35;7.48;95.09
75022;SHT31;63583;49.976;20.182;2024-02-04T14:10:01;7.57;94.50
75022;SHT31;63583;49.976;20.182;2024-02-04T14:12:27;7.48;94.94
75022;SHT31;63583;49.976;20.182;2024-02-04T14:14:55;7.43;95.42
75022;SHT31;63583;49.976;20.182;2024-02-04T14:17:20;7.37;95.74
75022;SHT31;63583;49.976;20.182;2024-02-04T14:19:46;7.37;95.49
75022;SHT31;63583;49.976;20.182;2024-02-04T14:22:15;7.33;95.48
75022;SHT31;63583;49.976;20.182;2024-02-04T14:24:43;7.38;95.00
75022;SHT31;63583;49.976;20.182;2024-02-04T14:27:10;7.36;94.77
75022;SHT31;63583;49.976;20.182;2024-02-04T14:29:36;7.30;94.66
75022;SHT31;63583;49.976;20.182;2024-02-04T14:32:02;7.38;93.28
75022;SHT31;63583;49.976;20.182;2024-02-04T14:34:28;7.37;92.63
75022;SHT31;63583;49.976;20.182;2024-02-04T14:36:54;7.29;92.82
75022;SHT31;63583;49.976;20.182;2024-02-04T14:39:20;7.22;92.02
75022;SHT31;63583;49.976;20.182;2024-02-04T14:41:45;7.20;92.08
75022;SHT31;63583;49.976;20.182;2024-02-04T14:44:11;7.23;91.72
75022;SHT31;63583;49.976;20.182;2024-02-04T14:46:38;7.16;91.71
75022;SHT31;63583;49.976;20.182;2024-02-04T14:49:04;7.19;91.97
75022;SHT31;63583;49.976;20.182;2024-02-04T14:51:30;7.19;92.20
75022;SHT31;63583;49.976;20.182;2024-02-04T14:53:59;7.19;92.10
75022;SHT31;63583;49.976;20.182;2024-02-04T14:56:24;7.24;92.11
75022;SHT31;63583;49.976;20.182;2024-02-04T14:58:50;7.20;92.16
75022;SHT31;63583;49.976;20.182;2024-02-04T15:01:16;7.19;92.10
75022;SHT31;63583;49.976;20.182;2024-02-04T15:03:43;7.17;92.04
75022;SHT31;63583;49.976;20.182;2024-02-04T15:06:08;7.17;91.25
75022;SHT31;63583;49.976;20.182;2024-02-04T15:08:34;7.27;90.60
75022;SHT31;63583;49.976;20.182;2024-02-04T15:11:00;7.22;90.39
75022;SHT31;63583;49.976;20.182;2024-02-04T15:13:26;7.15;90.36
75022;SHT31;63583;49.976;20.182;2024-02-04T15:15:52;7.12;90.46
75022;SHT31;63583;49.976;20.182;2024-02-04T15:18:18;7.13;90.18
75022;SHT31;63583;49.976;20.182;2024-02-04T15:20:44;7.03;90.43
75022;SHT31;63583;49.976;20.182;2024-02-04T15:23:10;6.96;90.92
75022;SHT31;63583;49.976;20.182;2024-02-04T15:25:36;7.06;90.98
75022;SHT31;63583;49.976;20.182;2024-02-04T15:28:04;6.98;91.34
75022;SHT31;63583;49.976;20.182;2024-02-04T15:30:30;7.05;91.26
75022;SHT31;63583;49.976;20.182;2024-02-04T15:32:58;7.13;91.23
75022;SHT31;63583;49.976;20.182;2024-02-04T15:35:24;7.02;91.63
75022;SHT31;63583;49.976;20.182;2024-02-04T15:37:51;7.09;91.53
75022;SHT31;63583;49.976;20.182;2024-02-04T15:40:17;6.98;92.01
75022;SHT31;63583;49.976;20.182;2024-02-04T15:42:45;7.03;91.96
75022;SHT31;63583;49.976;20.182;2024-02-04T15:45:10;7.03;92.06